Historyczne dane pomiarowe

Dodano dane terminowe – wersja testowa.

Dane z okresu 1951-2019

Wersja bazy: 1.34 [2019-03-16, lista zmian], aktualizacja planowana na 2019-04-15

Dane meteo z obszaru Polski uzyskane na podstawie danych udostępnionych przez Instytut Meteorologii i Gospodarki Wodnej – Państwowy Instytut Badawczy.

 

Wybierz Datę:    

       

TemperaturaWilgotnośćZachmurzenieWiatrCiśnienieWidzialnośćZjawiska
 Data    tng td wb rh cc ccl cl cm ch dir g1 g2 mslp ppp      
1999-08-03 00:00:00 4.4--- 2.5 3.587wxwxwx4wx--- 801.5 0.0---wxw1
1999-08-03 01:00:00 4.3--- 1.3 3.081wxwxwx4wx--- 801.4----wx
1999-08-03 02:00:00 4.6--- 2.5 3.686wxwxwxwxwx5wx--- 801.0----wx
1999-08-03 03:00:00 3.8--- 2.5 3.392wxwxwxwxwx5wx--- 800.9----wx
1999-08-03 04:00:00 3.5--- 3.5 3.5100wxwxwxwxwx7wx--- 800.8----wx
1999-08-03 05:00:00 3.4--- 3.4 3.4100wxwxwx7wx--- 800.9----wxw1
1999-08-03 06:00:00 3.5--- 3.5 3.5100wxwxwx6wx--- 800.9 0.0---wx
1999-08-03 07:00:00 4.3--- 4.3 4.3100wxwx5wx--- 801.2----wxw1
1999-08-03 08:00:00 4.9--- 4.9 4.9100wxwx5wx--- 801.3----wxw1
1999-08-03 09:00:00 4.9--- 4.9 4.9100wxwxwx4wx--- 801.6----wxw1
1999-08-03 10:00:00 5.1--- 5.1 5.1100wxwxwx2wx--- 801.6----wxw1
1999-08-03 11:00:00 5.2--- 5.1 5.2100wxwx2wx--- 801.7----wxw1
1999-08-03 12:00:00 5.7--- 5.7 5.7100wxwx2wx--- 801.8 0.0---wxw1
1999-08-03 13:00:00 5.8--- 5.8 5.8100wxwx3wx--- 801.9----wxw1
1999-08-03 14:00:00 5.7--- 5.7 5.7100wxwxwx4wx--- 801.9----wxw1
1999-08-03 15:00:00 5.8--- 5.8 5.8100wxwxwx5wx--- 802.0----wxw1
1999-08-03 16:00:00 6.1--- 5.5 5.895wxwxwx3wx--- 802.2----wx
1999-08-03 17:00:00 5.9--- 4.8 5.393wxwxwxwxwx4wx--- 802.2----wx
1999-08-03 18:00:00 4.9--- 4.0 4.494wxwxwxwx6wx--- 802.2 0.0---wxw1
1999-08-03 19:00:00 5.0--- 2.1 3.781wxwxwxwx5wx--- 802.5----wx
1999-08-03 20:00:00 5.5--- 2.3 4.180wxwxwxwxwx5wx--- 802.3----wx
1999-08-03 21:00:00 5.3--- 0.9 3.373wxwxwx5wx--- 802.1----wx
1999-08-03 22:00:00 5.2--- 0.4 3.171wxwxwx6wx--- 802.1----wx
1999-08-03 23:00:00 5.1--- -0.9 2.665wxwxwx5wx--- 802.0----wx

 

Źródłem pochodzenia danych jest Instytut Meteorologii i Gospodarki Wodnej – Państwowy Instytut Badawczy. Dane Instytutu Meteorologii i Gospodarki Wodnej – Państwowego Instytutu Badawczego zostały przetworzone.

Dane źródłowe można odnaleźć na stronie https://dane.imgw.pl